createdAt,value
2022-12-28T00:02:03.215Z,6.60
2022-12-28T00:04:35.803Z,6.30
2022-12-28T00:07:08.316Z,5.45
2022-12-28T00:09:40.836Z,6.22
2022-12-28T00:12:13.397Z,5.85
2022-12-28T00:14:46.333Z,5.50
2022-12-28T00:17:18.993Z,5.40
2022-12-28T00:19:51.604Z,5.30
2022-12-28T00:22:24.166Z,5.90
2022-12-28T00:24:56.677Z,5.55
2022-12-28T00:27:29.250Z,5.82
2022-12-28T00:30:01.898Z,5.45
2022-12-28T00:32:34.411Z,6.05
2022-12-28T00:35:07.454Z,5.82
2022-12-28T00:37:40.053Z,5.80
2022-12-28T00:40:15.343Z,5.15
2022-12-28T00:42:50.100Z,5.50
2022-12-28T00:45:22.706Z,5.38
2022-12-28T00:47:55.213Z,5.47
2022-12-28T00:50:27.693Z,6.18
2022-12-28T00:53:00.281Z,6.10
2022-12-28T00:55:34.008Z,6.38
2022-12-28T00:58:07.301Z,5.75
2022-12-28T01:00:40.239Z,5.75
2022-12-28T01:03:12.915Z,5.68
2022-12-28T01:05:45.487Z,6.00
2022-12-28T01:08:18.059Z,5.25
2022-12-28T01:10:50.955Z,5.07
2022-12-28T01:13:23.499Z,5.20
2022-12-28T01:15:56.040Z,5.45
2022-12-28T01:18:28.545Z,5.70
2022-12-28T01:21:01.151Z,5.13
2022-12-28T01:23:33.785Z,5.18
2022-12-28T01:26:06.541Z,5.53
2022-12-28T01:28:39.337Z,5.40
2022-12-28T01:31:14.812Z,5.35
2022-12-28T01:33:47.704Z,4.82
2022-12-28T01:36:25.596Z,4.82
2022-12-28T01:39:00.588Z,5.47
2022-12-28T01:41:37.491Z,5.93
2022-12-28T01:44:12.849Z,4.93
2022-12-28T01:46:50.324Z,4.57
2022-12-28T01:49:31.461Z,5.50
2022-12-28T01:52:12.479Z,5.20
2022-12-28T01:54:52.907Z,6.05
2022-12-28T01:57:30.545Z,5.45
2022-12-28T02:00:11.239Z,5.53
2022-12-28T02:03:12.592Z,5.63
2022-12-28T02:05:49.738Z,5.47
2022-12-28T02:08:46.881Z,5.13
2022-12-28T02:11:20.124Z,4.70
2022-12-28T02:16:25.538Z,4.75
2022-12-28T02:18:58.361Z,4.70
2022-12-28T02:22:08.900Z,4.63
2022-12-28T02:25:11.974Z,4.25
2022-12-28T02:28:01.719Z,3.83
2022-12-28T02:30:40.441Z,4.20
2022-12-28T02:33:24.535Z,4.07
2022-12-28T02:36:27.456Z,4.07
2022-12-28T02:39:37.326Z,4.00
2022-12-28T02:42:11.055Z,4.28
2022-12-28T02:45:02.217Z,3.78
2022-12-28T02:47:53.882Z,4.32
2022-12-28T02:50:40.305Z,4.20
2022-12-28T02:53:39.919Z,3.75
2022-12-28T02:56:28.012Z,4.53
2022-12-28T02:59:25.538Z,4.00
2022-12-28T03:02:07.806Z,4.63
2022-12-28T03:05:06.489Z,4.30
2022-12-28T03:08:09.447Z,4.95
2022-12-28T03:10:52.764Z,3.85
2022-12-28T03:13:45.172Z,3.70
2022-12-28T03:16:29.965Z,3.53
2022-12-28T03:19:26.721Z,3.95
2022-12-28T03:22:20.898Z,4.25
2022-12-28T03:25:13.190Z,3.78
2022-12-28T03:28:06.879Z,4.85
2022-12-28T03:31:02.603Z,4.88
2022-12-28T03:33:42.422Z,5.03
2022-12-28T03:36:44.297Z,5.18
2022-12-28T03:39:53.207Z,4.35
2022-12-28T03:42:58.846Z,4.30
2022-12-28T03:45:46.340Z,3.97
2022-12-28T03:48:23.218Z,4.53
2022-12-28T03:50:56.763Z,4.10
2022-12-28T03:53:37.535Z,4.03
2022-12-28T03:56:14.205Z,4.55
2022-12-28T03:58:49.438Z,4.53
2022-12-28T04:01:24.985Z,4.03
2022-12-28T04:03:57.875Z,4.72
2022-12-28T04:06:30.623Z,4.32
2022-12-28T04:09:04.572Z,4.50
2022-12-28T04:11:42.191Z,4.65
2022-12-28T04:14:22.923Z,5.18
2022-12-28T04:16:55.586Z,4.28
2022-12-28T04:19:28.292Z,5.35
2022-12-28T04:22:00.868Z,5.63
2022-12-28T04:24:33.592Z,6.53
2022-12-28T04:27:06.425Z,5.22
2022-12-28T04:29:39.034Z,6.22
2022-12-28T04:32:16.683Z,5.90
2022-12-28T04:34:49.328Z,5.93
2022-12-28T04:37:23.993Z,5.72
2022-12-28T04:39:57.484Z,6.78
2022-12-28T04:42:30.635Z,5.55
2022-12-28T04:45:03.287Z,5.63
2022-12-28T04:47:35.883Z,5.55
2022-12-28T04:50:08.731Z,5.63
2022-12-28T04:52:41.291Z,5.90
2022-12-28T04:55:32.679Z,5.65
2022-12-28T04:58:07.385Z,5.70
2022-12-28T05:00:40.260Z,5.93
2022-12-28T05:03:12.908Z,5.25
2022-12-28T05:05:45.522Z,5.30
2022-12-28T05:08:18.068Z,5.22
2022-12-28T05:10:50.621Z,5.68
2022-12-28T05:13:23.119Z,5.28
2022-12-28T05:15:56.158Z,5.57
2022-12-28T05:18:29.335Z,5.35
2022-12-28T05:21:09.201Z,5.78
2022-12-28T05:23:41.939Z,5.55
2022-12-28T05:26:18.203Z,5.25
2022-12-28T05:28:50.770Z,5.57
2022-12-28T05:31:24.215Z,5.43
2022-12-28T05:33:56.979Z,4.95
2022-12-28T05:36:29.568Z,5.35
2022-12-28T05:39:02.264Z,4.95
2022-12-28T05:41:34.892Z,5.40
2022-12-28T05:44:07.597Z,5.05
2022-12-28T05:46:40.240Z,5.57
2022-12-28T05:49:12.845Z,5.60
2022-12-28T05:51:46.969Z,5.68
2022-12-28T05:54:20.132Z,5.53
2022-12-28T05:56:52.796Z,6.05
2022-12-28T05:59:25.369Z,5.35
2022-12-28T06:01:58.040Z,5.60
2022-12-28T06:04:30.799Z,6.05
2022-12-28T06:07:03.413Z,6.32
2022-12-28T06:09:36.063Z,6.60
2022-12-28T06:12:08.668Z,5.80
2022-12-28T06:14:41.242Z,5.93
2022-12-28T06:17:13.961Z,5.90
2022-12-28T06:19:46.512Z,6.53
2022-12-28T06:22:19.013Z,6.17
2022-12-28T06:24:51.529Z,5.83
2022-12-28T06:27:24.122Z,6.05
2022-12-28T06:29:56.717Z,6.03
2022-12-28T06:32:29.257Z,6.20
2022-12-28T06:35:02.805Z,5.20
2022-12-28T06:37:35.416Z,5.75
2022-12-28T06:40:08.408Z,5.43
2022-12-28T06:42:42.086Z,5.72
2022-12-28T06:45:14.666Z,6.38
2022-12-28T06:47:47.163Z,6.05
2022-12-28T06:50:19.818Z,7.17
2022-12-28T06:52:52.325Z,7.43
2022-12-28T06:55:24.987Z,8.23
2022-12-28T06:57:57.450Z,8.68
2022-12-28T07:00:29.990Z,7.87
2022-12-28T07:03:02.625Z,8.18
2022-12-28T07:05:35.209Z,8.85
2022-12-28T07:08:12.490Z,8.88
2022-12-28T07:10:45.554Z,10.68
2022-12-28T07:13:20.839Z,11.15
2022-12-28T07:15:57.139Z,10.05
2022-12-28T07:18:30.102Z,9.75
2022-12-28T07:21:14.257Z,9.27
2022-12-28T07:23:51.934Z,10.07
2022-12-28T07:26:32.705Z,11.30
2022-12-28T07:29:06.667Z,10.07
2022-12-28T07:31:45.337Z,10.80
2022-12-28T07:34:18.429Z,13.18
2022-12-28T07:36:51.430Z,11.40
2022-12-28T07:39:23.952Z,11.65
2022-12-28T07:41:56.587Z,11.75
2022-12-28T07:44:30.279Z,12.43
2022-12-28T07:47:04.521Z,13.38
2022-12-28T07:49:37.146Z,11.63
2022-12-28T07:52:09.796Z,14.82
2022-12-28T07:54:42.394Z,12.68
2022-12-28T07:57:14.978Z,13.98
2022-12-28T07:59:47.557Z,14.75
2022-12-28T08:02:20.140Z,13.07
2022-12-28T08:04:52.821Z,14.15
2022-12-28T08:07:25.480Z,14.07
2022-12-28T08:09:58.012Z,14.85
2022-12-28T08:12:30.868Z,14.18
2022-12-28T08:15:03.619Z,14.85
2022-12-28T08:17:39.272Z,12.50
2022-12-28T08:20:12.093Z,12.15
2022-12-28T08:22:44.632Z,11.40
2022-12-28T08:25:17.259Z,11.23
2022-12-28T08:27:49.956Z,8.38
2022-12-28T08:30:22.604Z,8.88
2022-12-28T08:32:55.145Z,9.50
2022-12-28T08:35:27.759Z,9.52
2022-12-28T08:38:00.358Z,9.63
2022-12-28T08:40:32.943Z,9.20
2022-12-28T08:43:05.759Z,8.40
2022-12-28T08:45:38.268Z,8.38
2022-12-28T08:48:10.951Z,7.32
2022-12-28T08:50:43.494Z,7.35
2022-12-28T08:53:16.064Z,6.03
2022-12-28T08:55:48.938Z,6.35
2022-12-28T08:58:21.585Z,6.10
2022-12-28T09:00:54.155Z,6.47
2022-12-28T09:03:26.693Z,6.90
2022-12-28T09:06:03.249Z,6.72
2022-12-28T09:08:36.210Z,6.10
2022-12-28T09:11:11.702Z,5.80
2022-12-28T09:13:44.232Z,6.03
2022-12-28T09:16:19.476Z,7.13
2022-12-28T09:19:03.784Z,5.97
2022-12-28T09:21:39.228Z,6.43
2022-12-28T09:24:13.649Z,7.53
2022-12-28T09:26:46.276Z,6.88
2022-12-28T09:29:18.920Z,6.85
2022-12-28T09:31:51.527Z,7.93
2022-12-28T09:34:39.377Z,7.47
2022-12-28T09:37:11.914Z,6.47
2022-12-28T09:39:44.519Z,6.50
2022-12-28T09:42:24.256Z,6.18
2022-12-28T09:45:11.401Z,6.22
2022-12-28T09:47:50.033Z,6.93
2022-12-28T09:50:30.476Z,7.78
2022-12-28T09:53:29.770Z,7.63
2022-12-28T09:56:07.089Z,7.32
2022-12-28T09:58:46.446Z,10.88
2022-12-28T10:01:22.382Z,6.97
2022-12-28T10:03:56.362Z,7.20
2022-12-28T10:06:35.460Z,6.22
2022-12-28T10:09:19.656Z,5.80
2022-12-28T10:11:52.332Z,6.25
2022-12-28T10:14:30.682Z,5.40
2022-12-28T10:17:08.039Z,6.85
2022-12-28T10:19:40.999Z,5.85
2022-12-28T10:22:19.532Z,6.13
2022-12-28T10:24:52.883Z,6.13
2022-12-28T10:27:30.538Z,5.28
2022-12-28T10:30:08.226Z,4.63
2022-12-28T10:33:03.317Z,6.78
2022-12-28T10:35:48.700Z,6.28
2022-12-28T10:38:29.346Z,5.28
2022-12-28T10:41:09.853Z,4.50
2022-12-28T10:43:51.081Z,3.35
2022-12-28T10:46:38.368Z,3.95
2022-12-28T10:49:19.111Z,2.97
2022-12-28T10:52:15.545Z,3.35
2022-12-28T10:55:07.544Z,3.40
2022-12-28T10:58:03.004Z,3.40
2022-12-28T11:00:34.011Z,3.97
2022-12-28T11:03:32.291Z,4.35
2022-12-28T11:06:09.915Z,3.63
2022-12-28T11:08:44.502Z,3.30
2022-12-28T11:11:23.140Z,3.45
2022-12-28T11:14:27.199Z,3.35
2022-12-28T11:17:16.753Z,2.65
2022-12-28T11:19:55.348Z,3.17
2022-12-28T11:22:30.227Z,3.60
2022-12-28T11:25:03.479Z,3.17
2022-12-28T11:27:37.012Z,3.47
2022-12-28T11:30:17.747Z,3.15
2022-12-28T11:33:02.471Z,3.53
2022-12-28T11:35:39.170Z,3.38
2022-12-28T11:38:32.366Z,3.22
2022-12-28T11:41:06.121Z,2.72
2022-12-28T11:43:51.192Z,3.03
2022-12-28T11:46:26.478Z,3.65
2022-12-28T11:49:02.252Z,3.97
2022-12-28T11:51:37.174Z,3.35
2022-12-28T11:54:50.480Z,4.00
2022-12-28T11:57:39.671Z,4.10
2022-12-28T12:00:22.696Z,4.85
2022-12-28T12:02:58.612Z,3.90
2022-12-28T12:05:37.672Z,3.80
2022-12-28T12:08:16.778Z,4.07
2022-12-28T12:11:10.484Z,4.75
2022-12-28T12:13:45.138Z,3.55
2022-12-28T12:16:36.370Z,4.15
2022-12-28T12:19:19.371Z,3.65
2022-12-28T12:22:13.921Z,4.10
2022-12-28T12:24:58.139Z,3.83
2022-12-28T12:27:33.336Z,3.83
2022-12-28T12:30:20.151Z,3.55
2022-12-28T12:33:00.467Z,4.03
2022-12-28T12:36:12.926Z,3.92
2022-12-28T12:39:03.612Z,3.22
2022-12-28T12:42:13.669Z,3.75
2022-12-28T12:44:56.918Z,3.53
2022-12-28T12:47:53.683Z,3.28
2022-12-28T12:50:37.231Z,3.50
2022-12-28T12:53:46.347Z,4.03
2022-12-28T12:56:39.482Z,3.50
2022-12-28T12:59:33.812Z,3.70
2022-12-28T13:02:12.374Z,3.75
2022-12-28T13:04:48.447Z,4.20
2022-12-28T13:07:26.440Z,3.25
2022-12-28T13:10:02.745Z,4.18
2022-12-28T13:12:36.513Z,3.20
2022-12-28T13:15:16.823Z,2.90
2022-12-28T13:18:34.446Z,3.55
2022-12-28T13:21:04.747Z,3.70
2022-12-28T13:23:46.146Z,3.45
2022-12-28T13:26:26.311Z,3.10
2022-12-28T13:29:02.421Z,3.58
2022-12-28T13:31:38.119Z,3.60
2022-12-28T13:34:19.693Z,2.92
2022-12-28T13:36:56.908Z,3.72
2022-12-28T13:39:34.233Z,3.97
2022-12-28T13:42:19.418Z,3.97
2022-12-28T13:44:57.206Z,3.53
2022-12-28T13:47:39.917Z,3.70
2022-12-28T13:50:24.485Z,3.58
2022-12-28T13:53:02.559Z,4.03
2022-12-28T13:55:46.335Z,3.10
2022-12-28T13:58:39.840Z,3.53
2022-12-28T14:01:18.480Z,3.08
2022-12-28T14:03:55.917Z,3.00
2022-12-28T14:06:28.880Z,3.15
2022-12-28T14:09:05.664Z,3.13
2022-12-28T14:11:43.182Z,3.30
2022-12-28T14:14:16.678Z,3.50
2022-12-28T14:16:50.424Z,3.33
2022-12-28T14:19:23.051Z,3.65
2022-12-28T14:21:55.603Z,3.63
2022-12-28T14:24:28.317Z,2.95
2022-12-28T14:27:00.981Z,3.22
2022-12-28T14:29:36.413Z,3.03
2022-12-28T14:32:16.024Z,3.42
2022-12-28T14:34:55.760Z,3.15
2022-12-28T14:37:40.818Z,3.25
2022-12-28T14:40:25.672Z,3.90
2022-12-28T14:43:00.579Z,3.45
2022-12-28T14:46:07.096Z,3.83
2022-12-28T14:51:33.484Z,4.05
2022-12-28T14:54:26.989Z,4.85
2022-12-28T14:59:40.325Z,4.22
2022-12-28T15:00:26.365Z,4.00
2022-12-28T15:02:31.842Z,5.22
2022-12-28T15:05:05.010Z,5.35
2022-12-28T15:07:37.571Z,4.38
2022-12-28T15:10:10.347Z,5.50
2022-12-28T15:12:43.002Z,5.95
2022-12-28T15:15:15.873Z,5.43
2022-12-28T15:17:48.488Z,5.25
2022-12-28T15:20:21.065Z,6.50
2022-12-28T15:22:53.589Z,5.60
2022-12-28T15:25:26.212Z,6.30
2022-12-28T15:27:58.871Z,7.07
2022-12-28T15:30:31.775Z,6.03
2022-12-28T15:33:04.301Z,6.57
2022-12-28T15:35:37.107Z,7.03
2022-12-28T15:38:09.805Z,6.57
2022-12-28T15:40:42.470Z,7.07
2022-12-28T15:43:15.069Z,7.88
2022-12-28T15:45:57.393Z,7.00
2022-12-28T15:48:32.757Z,7.15
2022-12-28T15:51:05.407Z,6.60
2022-12-28T15:53:37.980Z,7.55
2022-12-28T15:56:28.121Z,6.72
2022-12-28T15:59:02.726Z,7.70
2022-12-28T16:01:35.532Z,7.75
2022-12-28T16:04:11.215Z,8.43
2022-12-28T16:06:44.968Z,8.25
2022-12-28T16:09:17.918Z,7.95
2022-12-28T16:11:55.020Z,8.80
2022-12-28T16:14:28.077Z,7.32
2022-12-28T16:17:00.855Z,7.63
2022-12-28T16:19:33.415Z,7.53
2022-12-28T16:22:06.283Z,8.35
2022-12-28T16:24:39.002Z,7.35
2022-12-28T16:27:11.847Z,6.93
2022-12-28T16:29:46.385Z,8.25
2022-12-28T16:32:18.987Z,8.82
2022-12-28T16:34:53.902Z,8.35
2022-12-28T16:37:26.350Z,8.93
2022-12-28T16:39:58.842Z,9.20
2022-12-28T16:42:32.488Z,10.07
2022-12-28T16:45:05.410Z,9.20
2022-12-28T16:47:44.268Z,9.40
2022-12-28T16:50:17.866Z,9.30
2022-12-28T16:55:22.820Z,11.00
2022-12-28T16:57:55.481Z,10.77
2022-12-28T17:00:28.073Z,11.48
2022-12-28T17:05:35.543Z,11.13
2022-12-28T17:08:08.670Z,11.30
2022-12-28T17:10:44.989Z,11.98
2022-12-28T17:13:17.881Z,10.90
2022-12-28T17:15:50.652Z,11.20
2022-12-28T17:18:23.229Z,12.00
2022-12-28T17:21:00.487Z,11.68
2022-12-28T17:23:36.254Z,10.75
2022-12-28T17:26:09.040Z,10.60
2022-12-28T17:28:41.607Z,11.80
2022-12-28T17:31:17.892Z,11.15
2022-12-28T17:33:57.924Z,10.13
2022-12-28T17:36:30.516Z,10.93
2022-12-28T17:39:03.121Z,12.20
2022-12-28T17:41:35.626Z,12.23
2022-12-28T17:44:08.253Z,13.57
2022-12-28T17:46:43.499Z,12.43
2022-12-28T17:49:16.895Z,12.57
2022-12-28T17:51:49.602Z,13.43
2022-12-28T17:54:22.172Z,14.23
2022-12-28T17:56:54.687Z,14.15
2022-12-28T17:59:27.661Z,14.27
2022-12-28T18:02:02.097Z,14.57
2022-12-28T18:04:35.692Z,13.88
2022-12-28T18:07:08.698Z,13.52
2022-12-28T18:09:41.324Z,13.25
2022-12-28T18:12:14.046Z,12.98
2022-12-28T18:14:46.703Z,12.88
2022-12-28T18:17:23.566Z,11.98
2022-12-28T18:19:56.287Z,11.75
2022-12-28T18:22:29.547Z,12.68
2022-12-28T18:27:36.087Z,11.35
2022-12-28T18:30:09.556Z,11.25
2022-12-28T18:32:42.071Z,13.60
2022-12-28T18:35:14.783Z,12.52
2022-12-28T18:37:47.423Z,11.02
2022-12-28T18:40:19.979Z,12.00
2022-12-28T18:42:52.487Z,11.60
2022-12-28T18:45:25.049Z,12.57
2022-12-28T18:47:57.911Z,13.23
2022-12-28T18:50:30.401Z,12.23
2022-12-28T18:53:02.926Z,12.70
2022-12-28T18:55:35.514Z,12.93
2022-12-28T18:58:08.210Z,13.02
2022-12-28T19:00:40.730Z,12.82
2022-12-28T19:03:13.629Z,12.70
2022-12-28T19:05:46.344Z,12.15
2022-12-28T19:08:18.996Z,12.07
2022-12-28T19:10:51.516Z,12.45
2022-12-28T19:13:24.057Z,12.65
2022-12-28T19:15:56.705Z,12.38
2022-12-28T19:18:29.400Z,12.55
2022-12-28T19:21:38.309Z,11.80
2022-12-28T19:24:18.013Z,12.65
2022-12-28T19:26:51.856Z,12.95
2022-12-28T19:29:24.971Z,10.48
2022-12-28T19:31:57.635Z,11.45
2022-12-28T19:34:30.220Z,11.95
2022-12-28T19:37:02.805Z,12.18
2022-12-28T19:39:35.333Z,11.52
2022-12-28T19:42:07.895Z,11.48
2022-12-28T19:44:41.158Z,11.15
2022-12-28T19:49:46.123Z,12.30
2022-12-28T19:52:18.585Z,12.88
2022-12-28T19:54:57.763Z,12.15
2022-12-28T19:57:30.689Z,11.85
2022-12-28T20:00:03.601Z,11.30
2022-12-28T20:02:37.177Z,11.57
2022-12-28T20:05:09.998Z,11.18
2022-12-28T20:07:42.551Z,10.48
2022-12-28T20:10:15.161Z,11.25
2022-12-28T20:12:47.728Z,11.18
2022-12-28T20:15:20.288Z,10.15
2022-12-28T20:17:52.906Z,10.93
2022-12-28T20:20:27.586Z,11.73
2022-12-28T20:23:03.215Z,9.55
2022-12-28T20:25:35.772Z,10.13
2022-12-28T20:28:08.289Z,10.73
2022-12-28T20:30:40.905Z,10.50
2022-12-28T20:33:16.968Z,11.10
2022-12-28T20:36:00.788Z,9.90
2022-12-28T20:38:33.625Z,9.60
2022-12-28T20:41:38.325Z,10.77
2022-12-28T20:44:17.825Z,9.75
2022-12-28T20:46:50.374Z,10.02
2022-12-28T20:49:24.304Z,10.60
2022-12-28T20:51:56.892Z,10.38
2022-12-28T20:54:29.392Z,10.40
2022-12-28T20:57:01.954Z,10.23
2022-12-28T20:59:34.477Z,9.50
2022-12-28T21:02:09.531Z,9.43
2022-12-28T21:04:42.157Z,10.05
2022-12-28T21:07:14.858Z,8.60
2022-12-28T21:09:50.964Z,10.90
2022-12-28T21:12:23.589Z,9.55
2022-12-28T21:14:56.161Z,10.00
2022-12-28T21:17:29.122Z,9.07
2022-12-28T21:20:01.603Z,9.98
2022-12-28T21:22:34.146Z,8.88
2022-12-28T21:25:07.440Z,9.32
2022-12-28T21:30:12.705Z,9.60
2022-12-28T21:32:48.986Z,8.73
2022-12-28T21:35:21.592Z,9.18
2022-12-28T21:37:54.171Z,8.98
2022-12-28T21:40:26.770Z,9.75
2022-12-28T21:42:59.359Z,8.20
2022-12-28T21:45:32.152Z,9.18
2022-12-28T21:48:05.029Z,8.00
2022-12-28T21:50:37.539Z,8.93
2022-12-28T21:53:10.108Z,8.73
2022-12-28T21:55:42.738Z,8.45
2022-12-28T21:58:15.227Z,9.02
2022-12-28T22:01:06.147Z,8.65
2022-12-28T22:03:56.996Z,8.65
2022-12-28T22:06:29.540Z,7.82
2022-12-28T22:09:20.298Z,9.00
2022-12-28T22:12:11.608Z,8.25
2022-12-28T22:14:44.181Z,7.72
2022-12-28T22:17:16.947Z,8.77
2022-12-28T22:19:49.625Z,8.50
2022-12-28T22:22:22.145Z,7.65
2022-12-28T22:24:54.680Z,8.05
2022-12-28T22:27:27.344Z,8.38
2022-12-28T22:30:00.033Z,9.18
2022-12-28T22:32:32.712Z,9.23
2022-12-28T22:35:06.145Z,9.00
2022-12-28T22:37:38.933Z,8.70
2022-12-28T22:40:12.087Z,9.77
2022-12-28T22:42:47.861Z,8.32
2022-12-28T22:45:24.485Z,8.90
2022-12-28T22:47:59.689Z,7.72
2022-12-28T22:50:32.309Z,8.38
2022-12-28T22:53:04.880Z,8.93
2022-12-28T22:55:37.565Z,7.90
2022-12-28T22:58:10.166Z,8.57
2022-12-28T23:00:42.701Z,8.05
2022-12-28T23:03:15.277Z,8.85
2022-12-28T23:05:52.825Z,8.10
2022-12-28T23:08:25.338Z,7.75
2022-12-28T23:11:01.536Z,7.28
2022-12-28T23:13:34.220Z,7.43
2022-12-28T23:16:06.810Z,8.15
2022-12-28T23:18:57.815Z,8.43
2022-12-28T23:21:48.593Z,7.50
2022-12-28T23:24:39.375Z,8.45
2022-12-28T23:27:20.476Z,7.45
2022-12-28T23:29:56.027Z,8.85
2022-12-28T23:32:28.702Z,7.97
2022-12-28T23:35:02.444Z,9.63
2022-12-28T23:37:35.059Z,8.38
2022-12-28T23:40:13.184Z,9.13
2022-12-28T23:42:46.039Z,9.50
2022-12-28T23:45:19.100Z,9.75
2022-12-28T23:47:54.121Z,10.48
2022-12-28T23:50:26.770Z,10.25
2022-12-28T23:52:59.423Z,9.45
2022-12-28T23:55:31.877Z,10.10
2022-12-28T23:58:04.774Z,10.30
